Red Deer Regional Airport
CYQF : rendu visible

Aérodrome :











RETROUVEZ-NOUS SUR...

 
LOGIN :

S'inscrire | Disclaimer

   EN    FR    IT 

 









Légende :    VFR   VFR Marginal   IFR   IFR Intensif   IFR Très Intensif
Visi : 
Plafond : 
>= 8 km
>= 3000ft
5 à 8 km
1000 à 3000 ft
1500m à 5 km
500 à 1000 ft
800 à 1500m
200 à 500 ft
< 800m
< 200 ft
Symboles :   Orages  Brouillard  Fortes neiges  Fortes précipitations  Vent > 20 kt






- Altitude de l'aérodrome : 2968 ft
- Code IATA : YQF


CYQF - Red Deer Regional

DERNIER METAR :
  • 191528Z 16003KT 2SM -SN BKN029 OVC060 M00/M03 A2979 RMK SN2SC4SC2 SLP132

METARs EXPIRÉS :
  • 191500Z 00000KT 6SM -SN BKN038 OVC070 M00/M03 A2978 RMK SC6AC2 SLP128
  • 191428Z 36006KT 15SM -SN BKN048 OVC070 M01/M03 A2977 RMK SC6AC2 SLP124
  • 191400Z 01005KT 15SM SCT050 OVC070 M01/M03 A2976 RMK SC4AC4 SLP123
  • 191337Z 03005KT 15SM BKN040 OVC070 M01/M03 A2976 RMK SC6AC2 SLP119
  • 191300Z 14007KT 12SM -SN OVC038 01/M02 A2976 RMK SC8 SLP117
  • 191254Z VRB04KT 12SM -SN OVC042 01/M03 A2976 RMK SC8 SLP117

TAF AMD TAF CYQF
Valide du 19 à 14h jusqu'au 20 à 00h UTC


191414Z 1914/1924 01005KT P6SM OVC060
TEMPO 1914/1915 2SM -SN BKN020 OVC060
FM191500 03007KT 1SM -SN VV006
TEMPO 1915/1922 3SM -SN OVC012
FM192200 35007KT 6SM -SN SCT012 OVC030
TEMPO 1922/1924 2SM -SN OVC012 RMK NXT FCST BY 191800Z



MET'MAP, la Météo Aéronautique d'un coup d'oeil ! - Copyright ORBIFLY Décembre 2007 - Disclaimer

ORBIFLY MET'MAP TEAM :

Programmation & Développement : Alexandra Zaïnal
Conception & Développement : Baudouin d'Aumeries
Co-Programmation & Développement : Marc-Olivier Méhu
Soutien technique & logistique : Manuel Goepfert

Contact : metmap@orbifly.com




SOURCES & CREDITS :

   NOAA       Earth
Advisory